Time;durP1;ratioP1;P1;durP2;ratioP2;P2;SDS_P1;SDS_P2;PMS_P1;PMS_P2;Temp;Humidity;BMP_temperature;BMP_pressure;BME280_temperature;BME280_humidity;BME280_pressure;Samples;Min_cycle;Max_cycle;Signal;HPM_P1;HPM_P2
2022/11/03 00:01:05;;;;;;;;;;;;;;;14.80;100.00;99024.97;5036379;28;19921;-41
2022/11/03 00:03:30;;;;;;;;;;;;;;;14.95;100.00;99024.22;5038585;28;19916;-40
2022/11/03 00:06:04;;;;;;;;;;;;;;;15.41;100.00;99016.72;5041994;28;20357;-41
2022/11/03 00:08:33;;;;;;;;;;;;;;;14.39;100.00;99031.22;5039412;28;19974;-41
2022/11/03 00:11:05;;;;;;;;;;;;;;;14.99;100.00;99030.13;5042428;28;19925;-41
2022/11/03 00:13:31;;;;;;;;;;;;;;;14.80;100.00;99032.75;5036725;28;19924;-41
2022/11/03 00:15:56;;;;;;;;;;;;;;;14.80;100.00;99030.16;5042478;28;19921;-40
2022/11/03 00:18:21;;;;;;;;;;;;;;;14.79;100.00;99018.13;5040235;28;20594;-42
2022/11/03 00:21:05;;;;;;;;;;;;;;;15.27;100.00;99008.81;5043300;28;19924;-40
2022/11/03 00:23:32;;;;;;;;;;;;;;;14.68;100.00;99023.00;5041997;28;20392;-42
2022/11/03 00:26:08;;;;;;;;;;;;;;;14.50;100.00;99014.31;5040901;28;20386;-42
2022/11/03 00:28:33;;;;;;;;;;;;;;;14.69;100.00;99006.50;5041540;28;20006;-42
2022/11/03 00:30:59;;;;;;;;;;;;;;;14.72;100.00;99011.56;5040740;28;19920;-42
2022/11/03 00:33:26;;;;;;;;;;;;;;;14.51;100.00;99010.81;5042796;28;19963;-42
2022/11/03 00:36:01;;;;;;;;;;;;;;;14.29;100.00;99006.66;5041759;28;19967;-42
2022/11/03 00:38:26;;;;;;;;;;;;;;;14.52;100.00;99010.75;5041355;28;19928;-42
2022/11/03 00:40:53;;;;;;;;;;;;;;;13.97;100.00;99000.38;5039388;28;19930;-42
2022/11/03 00:43:18;;;;;;;;;;;;;;;13.99;100.00;99019.28;5041381;28;19920;-42
2022/11/03 00:45:43;;;;;;;;;;;;;;;14.05;100.00;99012.97;5042120;28;20429;-42
2022/11/03 00:50:53;;;;;;;;;;;;;;;14.95;100.00;99002.66;5040798;28;19967;-42
2022/11/03 00:53:18;;;;;;;;;;;;;;;14.48;100.00;99001.44;5041961;28;19979;-42
2022/11/03 00:55:47;;;;;;;;;;;;;;;14.78;100.00;99001.75;5041723;28;20027;-42
2022/11/03 00:58:13;;;;;;;;;;;;;;;14.29;100.00;98998.88;5056948;28;20397;-42
2022/11/03 01:00:38;;;;;;;;;;;;;;;14.08;100.00;99000.72;5039413;28;19920;-43
2022/11/03 01:03:03;;;;;;;;;;;;;;;14.56;100.00;99004.53;5040660;28;19968;-42
2022/11/03 01:08:12;;;;;;;;;;;;;;;14.71;100.00;98996.91;5040209;28;19931;-42
2022/11/03 01:10:37;;;;;;;;;;;;;;;14.83;100.00;99004.94;5042098;28;19924;-42
2022/11/03 01:13:02;;;;;;;;;;;;;;;15.00;100.00;98998.91;5040879;28;20015;-42
2022/11/03 01:15:28;;;;;;;;;;;;;;;14.39;100.00;99005.31;5039630;28;19924;-43
2022/11/03 01:17:53;;;;;;;;;;;;;;;14.71;100.00;99004.69;5041835;28;19927;-43
2022/11/03 01:20:18;;;;;;;;;;;;;;;14.86;100.00;98993.56;5041542;28;19962;-42
2022/11/03 01:22:43;;;;;;;;;;;;;;;14.71;100.00;98999.50;5039727;28;19963;-42
2022/11/03 01:25:08;;;;;;;;;;;;;;;14.86;100.00;99001.34;5040260;28;19921;-42
2022/11/03 01:27:34;;;;;;;;;;;;;;;15.33;100.00;98997.28;5040916;28;19917;-42
2022/11/03 01:29:59;;;;;;;;;;;;;;;14.37;100.00;99016.66;5039409;28;19976;-42
2022/11/03 01:32:24;;;;;;;;;;;;;;;14.72;100.00;99007.22;5041485;28;19975;-43
2022/11/03 01:34:49;;;;;;;;;;;;;;;14.85;100.00;98997.94;5041021;28;19921;-42
2022/11/03 01:37:14;;;;;;;;;;;;;;;15.11;100.00;99005.31;5054526;28;20900;-43
2022/11/03 01:39:40;;;;;;;;;;;;;;;14.84;100.00;99000.59;5056743;28;20551;-42
2022/11/03 01:42:05;;;;;;;;;;;;;;;14.95;100.00;99008.66;5041934;28;19920;-42
2022/11/03 01:44:34;;;;;;;;;;;;;;;15.22;100.00;98996.06;5042098;28;19921;-42
2022/11/03 01:46:59;;;;;;;;;;;;;;;14.30;100.00;98994.53;5037757;28;19921;-42
2022/11/03 01:49:35;;;;;;;;;;;;;;;14.60;100.00;98995.69;5040907;28;19924;-42
2022/11/03 01:52:02;;;;;;;;;;;;;;;14.70;100.00;98987.47;5039560;28;19920;-43
2022/11/03 01:54:28;;;;;;;;;;;;;;;14.72;100.00;98976.13;5038946;28;19972;-43
2022/11/03 01:56:53;;;;;;;;;;;;;;;14.78;100.00;98980.13;5039504;28;19959;-42
2022/11/03 01:59:19;;;;;;;;;;;;;;;14.87;100.00;98982.31;5039574;28;20017;-42
2022/11/03 02:01:45;;;;;;;;;;;;;;;14.44;100.00;98972.25;5039519;28;19928;-42
2022/11/03 02:04:13;;;;;;;;;;;;;;;14.56;100.00;98986.38;5038102;28;20568;-42
2022/11/03 02:06:38;;;;;;;;;;;;;;;14.76;100.00;98984.59;5039318;28;20094;-42
2022/11/03 02:09:04;;;;;;;;;;;;;;;14.84;100.00;98975.50;5039406;28;20687;-42
2022/11/03 02:14:14;;;;;;;;;;;;;;;14.76;100.00;98971.63;5039039;28;19927;-42
2022/11/03 02:16:39;;;;;;;;;;;;;;;14.30;100.00;98971.22;5039821;28;19917;-42
2022/11/03 02:19:05;;;;;;;;;;;;;;;14.36;100.00;98973.53;5038260;28;20242;-42
2022/11/03 02:21:34;;;;;;;;;;;;;;;14.28;100.00;98965.25;5040356;28;19939;-42
2022/11/03 02:24:38;;;;;;;;;;;;;;;14.54;100.00;98956.25;5039495;28;19920;-42
2022/11/03 02:27:03;;;;;;;;;;;;;;;14.30;100.00;98958.25;5016610;28;20008;-42
2022/11/03 02:29:29;;;;;;;;;;;;;;;14.97;100.00;98957.56;5001289;28;19925;-43
2022/11/03 02:31:57;;;;;;;;;;;;;;;14.81;100.00;98949.72;5027625;28;20074;-42
2022/11/03 02:34:25;;;;;;;;;;;;;;;14.63;100.00;98940.28;5040198;28;19952;-42
2022/11/03 02:36:52;;;;;;;;;;;;;;;14.46;100.00;98942.81;5040006;28;19932;-42
2022/11/03 02:39:18;;;;;;;;;;;;;;;14.60;100.00;98925.72;5037747;28;20073;-42
2022/11/03 02:41:43;;;;;;;;;;;;;;;14.48;100.00;98934.06;5039548;28;20011;-42
2022/11/03 02:44:15;;;;;;;;;;;;;;;14.51;100.00;98920.97;5038093;28;19928;-42
2022/11/03 02:46:41;;;;;;;;;;;;;;;14.91;100.00;98911.19;5037000;28;19923;-42
2022/11/03 02:49:06;;;;;;;;;;;;;;;14.26;100.00;98915.31;5040289;28;19928;-42
2022/11/03 02:51:33;;;;;;;;;;;;;;;14.75;100.00;98913.72;5040213;28;20035;-42
2022/11/03 02:54:19;;;;;;;;;;;;;;;14.48;100.00;98910.72;5037753;28;19928;-42
2022/11/03 02:56:46;;;;;;;;;;;;;;;14.15;100.00;98914.06;5039773;28;19920;-42
2022/11/03 02:59:13;;;;;;;;;;;;;;;14.32;100.00;98909.81;5037771;28;19921;-42
2022/11/03 03:01:47;;;;;;;;;;;;;;;14.34;100.00;98901.06;5036465;28;19940;-42
2022/11/03 03:04:32;;;;;;;;;;;;;;;13.83;100.00;98904.41;5036556;28;19928;-42
2022/11/03 03:07:09;;;;;;;;;;;;;;;13.85;100.00;98902.59;5040125;28;19996;-42
2022/11/03 03:09:36;;;;;;;;;;;;;;;14.19;100.00;98900.06;5039473;28;19920;-42
2022/11/03 03:12:02;;;;;;;;;;;;;;;14.14;100.00;98886.50;5037701;28;19920;-42
2022/11/03 03:14:28;;;;;;;;;;;;;;;14.21;100.00;98887.88;5037531;28;19931;-43
2022/11/03 03:16:53;;;;;;;;;;;;;;;13.70;100.00;98892.03;5037577;28;19920;-42
2022/11/03 03:19:21;;;;;;;;;;;;;;;14.11;100.00;98886.63;5040289;28;20305;-43
2022/11/03 03:21:47;;;;;;;;;;;;;;;14.23;100.00;98875.69;5039691;28;19917;-42
2022/11/03 03:24:32;;;;;;;;;;;;;;;14.02;100.00;98867.19;5037358;28;19928;-42
2022/11/03 03:26:58;;;;;;;;;;;;;;;14.05;100.00;98876.59;5036460;28;19921;-43
2022/11/03 03:29:32;;;;;;;;;;;;;;;14.02;100.00;98869.78;5038080;28;19964;-42
2022/11/03 03:31:59;;;;;;;;;;;;;;;13.53;100.00;98874.69;5037556;28;19921;-42
2022/11/03 03:34:24;;;;;;;;;;;;;;;13.73;100.00;98872.91;5038769;28;20329;-42
2022/11/03 03:36:49;;;;;;;;;;;;;;;14.03;100.00;98862.88;5036019;28;19917;-42
2022/11/03 03:39:14;;;;;;;;;;;;;;;14.44;100.00;98852.22;5036514;28;19924;-42
2022/11/03 03:41:40;;;;;;;;;;;;;;;14.00;100.00;98850.06;5037764;28;19918;-42
2022/11/03 03:44:05;;;;;;;;;;;;;;;13.76;100.00;98850.34;5039976;28;20480;-42
2022/11/03 03:46:33;;;;;;;;;;;;;;;14.13;100.00;98842.53;5034367;28;19917;-42
2022/11/03 03:48:58;;;;;;;;;;;;;;;14.05;100.00;98840.34;5038265;28;19929;-42
2022/11/03 03:51:24;;;;;;;;;;;;;;;13.91;100.00;98842.75;5037826;28;19989;-42
2022/11/03 03:53:51;;;;;;;;;;;;;;;14.06;100.00;98843.75;5037768;28;20007;-42
2022/11/03 03:56:17;;;;;;;;;;;;;;;13.89;100.00;98839.38;5037981;28;19917;-43
2022/11/03 03:58:42;;;;;;;;;;;;;;;13.58;100.00;98840.84;5037089;28;20373;-42
2022/11/03 04:01:09;;;;;;;;;;;;;;;13.89;100.00;98836.78;5038959;28;19921;-43
2022/11/03 04:03:35;;;;;;;;;;;;;;;14.38;100.00;98832.63;5037560;28;19922;-42
2022/11/03 04:06:00;;;;;;;;;;;;;;;13.42;100.00;98832.13;5038656;28;20401;-43
2022/11/03 04:08:25;;;;;;;;;;;;;;;13.98;100.00;98833.75;5037860;28;20354;-43
2022/11/03 04:24:30;;;;;;;;;;;;;;;14.13;100.00;98825.25;5038635;28;19931;-42
2022/11/03 04:26:56;;;;;;;;;;;;;;;14.14;100.00;98824.34;5038585;28;19916;-42
2022/11/03 04:29:21;;;;;;;;;;;;;;;14.18;100.00;98818.06;5036647;28;19920;-42
2022/11/03 04:31:46;;;;;;;;;;;;;;;14.13;100.00;98812.28;5039310;28;19920;-42
2022/11/03 04:34:12;;;;;;;;;;;;;;;13.99;100.00;98814.75;5038720;28;20003;-42
2022/11/03 04:36:37;;;;;;;;;;;;;;;13.97;100.00;98817.38;5037736;28;20019;-42
2022/11/03 04:39:04;;;;;;;;;;;;;;;13.89;100.00;98805.72;5037018;28;20017;-42
2022/11/03 04:41:30;;;;;;;;;;;;;;;14.05;100.00;98808.41;5035868;28;20275;-42
2022/11/03 04:43:56;;;;;;;;;;;;;;;14.13;100.00;98796.75;5038133;28;20537;-42
2022/11/03 04:46:25;;;;;;;;;;;;;;;14.22;100.00;98806.66;5037326;28;19979;-43
2022/11/03 04:48:51;;;;;;;;;;;;;;;13.84;100.00;98805.13;5035473;28;20391;-42
2022/11/03 04:51:17;;;;;;;;;;;;;;;14.21;100.00;98799.81;5041068;28;20370;-43
2022/11/03 04:53:44;;;;;;;;;;;;;;;14.16;100.00;98801.81;5024123;28;19921;-42
2022/11/03 04:56:13;;;;;;;;;;;;;;;14.26;100.00;98794.41;5040206;28;19920;-43
2022/11/03 04:58:38;;;;;;;;;;;;;;;14.32;100.00;98786.34;5040827;28;19975;-42
2022/11/03 05:01:05;;;;;;;;;;;;;;;14.42;100.00;98784.94;5039854;28;20366;-43
2022/11/03 05:03:31;;;;;;;;;;;;;;;14.13;100.00;98785.56;5040260;28;20836;-42
2022/11/03 05:05:56;;;;;;;;;;;;;;;14.45;100.00;98783.94;5040733;28;19993;-42
2022/11/03 05:08:22;;;;;;;;;;;;;;;13.87;100.00;98786.88;5039821;28;19965;-42
2022/11/03 05:10:47;;;;;;;;;;;;;;;14.17;100.00;98782.75;5041489;28;19925;-42
2022/11/03 05:13:39;;;;;;;;;;;;;;;14.42;100.00;98771.16;5022575;28;20498;-43
2022/11/03 05:16:04;;;;;;;;;;;;;;;14.64;100.00;98755.34;5040612;28;19917;-42
2022/11/03 05:18:30;;;;;;;;;;;;;;;14.17;100.00;98769.81;5039923;28;19920;-43
2022/11/03 05:21:00;;;;;;;;;;;;;;;14.50;100.00;98758.63;5036369;28;19925;-43
2022/11/03 05:23:25;;;;;;;;;;;;;;;13.84;100.00;98761.13;5037168;28;20007;-42
2022/11/03 05:25:54;;;;;;;;;;;;;;;14.40;100.00;98766.03;5040490;28;20031;-42
2022/11/03 05:28:22;;;;;;;;;;;;;;;14.40;100.00;98760.03;5038323;28;20378;-42
2022/11/03 05:30:48;;;;;;;;;;;;;;;13.78;100.00;98760.50;5041790;28;19928;-43
2022/11/03 05:33:15;;;;;;;;;;;;;;;14.28;100.00;98745.09;5040799;28;19920;-43
2022/11/03 05:35:40;;;;;;;;;;;;;;;14.30;100.00;98746.72;5033246;28;20011;-43
2022/11/03 05:38:09;;;;;;;;;;;;;;;13.84;100.00;98737.81;5041787;28;20013;-42
2022/11/03 05:40:34;;;;;;;;;;;;;;;14.25;100.00;98742.66;5039677;28;19923;-43
2022/11/03 05:43:00;;;;;;;;;;;;;;;14.23;100.00;98730.66;5040368;28;19925;-42
2022/11/03 05:45:31;;;;;;;;;;;;;;;14.60;100.00;98722.75;5038232;28;19920;-43
2022/11/03 05:47:56;;;;;;;;;;;;;;;14.42;100.00;98725.34;5039531;28;19920;-43
2022/11/03 05:50:25;;;;;;;;;;;;;;;14.01;100.00;98717.13;5039185;28;20306;-42
2022/11/03 05:52:51;;;;;;;;;;;;;;;13.86;100.00;98723.06;5039409;28;20530;-43
2022/11/03 05:55:29;;;;;;;;;;;;;;;14.09;100.00;98730.50;5041380;28;19917;-42
2022/11/03 05:57:55;;;;;;;;;;;;;;;14.26;100.00;98711.53;5039556;28;19932;-42
2022/11/03 06:00:24;;;;;;;;;;;;;;;14.15;100.00;98717.25;5038654;28;19994;-42
2022/11/03 06:02:50;;;;;;;;;;;;;;;14.17;100.00;98720.59;5036207;28;19927;-42
2022/11/03 06:05:19;;;;;;;;;;;;;;;14.45;100.00;98703.63;5039617;28;20302;-42
2022/11/03 06:07:45;;;;;;;;;;;;;;;14.15;100.00;98712.06;5041302;28;19917;-42
2022/11/03 06:10:36;;;;;;;;;;;;;;;13.87;100.00;98722.16;5039216;28;19924;-42
2022/11/03 06:13:03;;;;;;;;;;;;;;;13.73;100.00;98723.69;5037903;28;19924;-42
2022/11/03 06:15:35;;;;;;;;;;;;;;;14.22;100.00;98708.22;5039378;28;20426;-42
2022/11/03 06:18:09;;;;;;;;;;;;;;;14.01;100.00;98705.00;5038817;28;19948;-42
2022/11/03 06:20:35;;;;;;;;;;;;;;;13.82;100.00;98714.59;5039509;28;19928;-42
2022/11/03 06:23:00;;;;;;;;;;;;;;;14.06;100.00;98697.00;5038324;28;19920;-42
2022/11/03 06:25:29;;;;;;;;;;;;;;;14.05;100.00;98695.34;5041100;28;19917;-42
2022/11/03 06:27:55;;;;;;;;;;;;;;;14.48;100.00;98693.06;5021785;28;20512;-42
2022/11/03 06:30:23;;;;;;;;;;;;;;;13.99;100.00;98691.28;5038186;28;19920;-42
2022/11/03 06:32:48;;;;;;;;;;;;;;;13.74;100.00;98694.28;5038494;28;20455;-42
2022/11/03 06:35:13;;;;;;;;;;;;;;;13.72;100.00;98692.69;5039899;28;19913;-42
2022/11/03 06:37:38;;;;;;;;;;;;;;;13.81;100.00;98687.88;5038341;28;19982;-42
2022/11/03 06:40:10;;;;;;;;;;;;;;;13.49;100.00;98679.13;5037862;28;19990;-42
2022/11/03 06:42:35;;;;;;;;;;;;;;;13.60;100.00;98688.97;5040276;28;19927;-42
2022/11/03 06:45:01;;;;;;;;;;;;;;;13.68;100.00;98685.97;5020059;28;19920;-42
2022/11/03 06:47:27;;;;;;;;;;;;;;;13.30;100.00;98696.47;5038001;28;20123;-42
2022/11/03 06:49:53;;;;;;;;;;;;;;;13.87;100.00;98681.56;5035100;28;19924;-42
2022/11/03 06:52:32;;;;;;;;;;;;;;;13.82;100.00;98670.59;5035605;28;20626;-42
2022/11/03 06:55:06;;;;;;;;;;;;;;;13.64;100.00;98674.97;5037847;28;20007;-42
2022/11/03 06:57:32;;;;;;;;;;;;;;;13.48;100.00;98672.28;5038273;28;19917;-42
2022/11/03 06:59:58;;;;;;;;;;;;;;;13.52;100.00;98667.78;5037705;28;19917;-42
2022/11/03 07:02:42;;;;;;;;;;;;;;;13.58;100.00;98676.09;5038624;28;19913;-42
2022/11/03 07:05:26;;;;;;;;;;;;;;;14.04;100.00;98661.75;5039183;28;19994;-42
2022/11/03 07:07:51;;;;;;;;;;;;;;;14.41;100.00;98650.28;5037921;28;19913;-42
2022/11/03 07:10:16;;;;;;;;;;;;;;;13.47;100.00;98662.00;5035936;28;19935;-42
2022/11/03 07:12:42;;;;;;;;;;;;;;;13.76;100.00;98668.34;5052292;28;19959;-43
2022/11/03 07:15:15;;;;;;;;;;;;;;;13.54;100.00;98678.91;5050802;28;19947;-43
2022/11/03 07:17:40;;;;;;;;;;;;;;;13.85;100.00;98657.50;5019361;28;20378;-42
2022/11/03 07:20:11;;;;;;;;;;;;;;;14.15;100.00;98649.91;5034646;28;19932;-42
2022/11/03 07:22:37;;;;;;;;;;;;;;;13.92;100.00;98637.34;5037849;28;20000;-42
2022/11/03 07:25:02;;;;;;;;;;;;;;;13.91;100.00;98635.63;5040014;28;20037;-42
2022/11/03 07:27:27;;;;;;;;;;;;;;;13.98;100.00;98626.63;5040270;28;19928;-42
2022/11/03 07:29:56;;;;;;;;;;;;;;;14.10;100.00;98626.00;5038416;28;19921;-42
2022/11/03 07:32:21;;;;;;;;;;;;;;;14.52;100.00;98621.22;5036663;28;19916;-42
2022/11/03 07:34:47;;;;;;;;;;;;;;;14.04;100.00;98621.16;5038307;28;19913;-42
2022/11/03 07:37:22;;;;;;;;;;;;;;;13.79;100.00;98622.41;5040236;28;19919;-42
2022/11/03 07:39:49;;;;;;;;;;;;;;;14.12;100.00;98616.41;5020509;28;19927;-42
2022/11/03 07:42:18;;;;;;;;;;;;;;;14.09;100.00;98611.38;5039536;28;20843;-42
2022/11/03 07:44:43;;;;;;;;;;;;;;;14.40;100.00;98602.00;5038658;28;19917;-42
2022/11/03 07:47:17;;;;;;;;;;;;;;;14.29;100.00;98604.31;5037988;28;20266;-42
2022/11/03 07:49:43;;;;;;;;;;;;;;;14.13;100.00;98599.94;5037224;28;20023;-43
2022/11/03 07:52:09;;;;;;;;;;;;;;;14.29;100.00;98591.38;5037563;28;20043;-42
2022/11/03 07:54:34;;;;;;;;;;;;;;;14.40;100.00;98581.25;5038974;28;19952;-42
2022/11/03 07:57:00;;;;;;;;;;;;;;;14.11;100.00;98568.13;5039142;28;20026;-42
2022/11/03 07:59:32;;;;;;;;;;;;;;;14.17;100.00;98541.91;5038218;28;19913;-42
2022/11/03 08:01:58;;;;;;;;;;;;;;;14.07;100.00;98543.34;5037877;28;20377;-42
2022/11/03 08:04:27;;;;;;;;;;;;;;;14.31;100.00;98532.56;5039403;28;19913;-42
2022/11/03 08:06:52;;;;;;;;;;;;;;;14.08;100.00;98534.63;5038208;28;20309;-42
2022/11/03 08:09:17;;;;;;;;;;;;;;;14.64;100.00;98530.72;5038410;28;19924;-42
2022/11/03 08:11:43;;;;;;;;;;;;;;;14.11;100.00;98523.28;5038319;28;19925;-42
2022/11/03 08:14:09;;;;;;;;;;;;;;;14.14;100.00;98525.69;5039320;28;19924;-42
2022/11/03 08:16:34;;;;;;;;;;;;;;;14.20;100.00;98513.25;5039016;28;19912;-42
2022/11/03 08:18:59;;;;;;;;;;;;;;;14.23;100.00;98531.22;5039224;28;20043;-42
2022/11/03 08:21:25;;;;;;;;;;;;;;;14.17;100.00;98518.59;5038850;28;19917;-42
2022/11/03 08:23:50;;;;;;;;;;;;;;;14.57;100.00;98520.75;5039413;28;19916;-42
2022/11/03 08:26:15;;;;;;;;;;;;;;;14.79;100.00;98503.06;5057613;28;19966;-42
2022/11/03 08:28:40;;;;;;;;;;;;;;;14.07;100.00;98512.25;5043367;28;19917;-42
2022/11/03 08:31:05;;;;;;;;;;;;;;;14.45;100.00;98506.72;5041818;28;19921;-42
2022/11/03 08:33:31;;;;;;;;;;;;;;;14.30;100.00;98508.41;5042755;28;19985;-42
2022/11/03 08:35:57;;;;;;;;;;;;;;;14.70;100.00;98500.19;5042652;28;20017;-42
2022/11/03 08:38:22;;;;;;;;;;;;;;;14.64;100.00;98502.22;5043192;28;19916;-42
2022/11/03 08:40:47;;;;;;;;;;;;;;;15.08;100.00;98497.16;5041613;28;20023;-42
2022/11/03 08:43:12;;;;;;;;;;;;;;;14.52;100.00;98497.66;5043630;28;19912;-42
2022/11/03 08:45:37;;;;;;;;;;;;;;;15.07;100.00;98488.50;5042471;28;19928;-42
2022/11/03 08:48:03;;;;;;;;;;;;;;;14.49;100.00;98490.06;5041745;28;19928;-42
2022/11/03 08:50:29;;;;;;;;;;;;;;;14.82;100.00;98489.09;5040891;28;19925;-42
2022/11/03 08:52:54;;;;;;;;;;;;;;;15.16;100.00;98479.38;5042975;28;19917;-42
2022/11/03 08:55:19;;;;;;;;;;;;;;;15.35;100.00;98472.16;5042434;28;20351;-42
2022/11/03 08:57:46;;;;;;;;;;;;;;;15.16;100.00;98456.84;5043515;28;19966;-42
2022/11/03 09:00:11;;;;;;;;;;;;;;;15.25;100.00;98468.44;5040359;28;20301;-42
2022/11/03 09:02:36;;;;;;;;;;;;;;;14.88;100.00;98464.59;5042307;28;19917;-42
2022/11/03 09:05:03;;;;;;;;;;;;;;;15.35;100.00;98469.56;5042443;28;19928;-42
2022/11/03 09:07:28;;;;;;;;;;;;;;;15.36;100.00;98463.44;5042982;28;19952;-42
2022/11/03 09:09:54;;;;;;;;;;;;;;;15.08;100.00;98473.81;5041053;28;19987;-42
2022/11/03 09:12:20;;;;;;;;;;;;;;;15.38;100.00;98456.41;5040946;28;19921;-42
2022/11/03 09:14:45;;;;;;;;;;;;;;;15.32;100.00;98461.97;5041070;28;19917;-42
2022/11/03 09:17:10;;;;;;;;;;;;;;;15.41;100.00;98453.63;5042439;28;20389;-42
2022/11/03 09:19:35;;;;;;;;;;;;;;;15.47;100.00;98455.03;5041010;28;20366;-42
2022/11/03 09:22:01;;;;;;;;;;;;;;;15.48;100.00;98447.13;5042256;28;19920;-42
2022/11/03 09:24:26;;;;;;;;;;;;;;;15.54;100.00;98455.47;5042063;28;19932;-42
2022/11/03 09:26:51;;;;;;;;;;;;;;;15.12;100.00;98445.00;5042679;28;19923;-42
2022/11/03 09:29:16;;;;;;;;;;;;;;;15.48;100.00;98441.09;5040664;28;19936;-42
2022/11/03 09:31:42;;;;;;;;;;;;;;;15.53;100.00;98443.41;5041547;28;19927;-42
2022/11/03 09:34:07;;;;;;;;;;;;;;;15.84;100.00;98429.41;5040491;28;19956;-42
2022/11/03 09:36:32;;;;;;;;;;;;;;;15.02;100.00;98423.13;5040988;28;20616;-42
2022/11/03 09:38:57;;;;;;;;;;;;;;;15.51;100.00;98419.31;5041265;28;20273;-42
2022/11/03 09:41:22;;;;;;;;;;;;;;;15.33;100.00;98414.34;5041502;28;20456;-42
2022/11/03 09:43:48;;;;;;;;;;;;;;;15.86;100.00;98414.56;5041733;28;20300;-42
2022/11/03 09:46:14;;;;;;;;;;;;;;;15.87;100.00;98409.28;5024690;28;20274;-42
2022/11/03 09:48:40;;;;;;;;;;;;;;;15.54;100.00;98406.19;5040226;28;19921;-42
2022/11/03 09:51:05;;;;;;;;;;;;;;;15.77;100.00;98399.56;5039968;28;19917;-42
2022/11/03 09:53:30;;;;;;;;;;;;;;;15.58;100.00;98405.06;5040137;28;20011;-42
2022/11/03 09:55:55;;;;;;;;;;;;;;;15.59;100.00;98388.56;5042252;28;19923;-42
2022/11/03 09:58:21;;;;;;;;;;;;;;;15.71;100.00;98399.94;5041427;28;19923;-42
2022/11/03 10:00:46;;;;;;;;;;;;;;;15.80;100.00;98399.38;5040323;28;20729;-42
2022/11/03 10:03:12;;;;;;;;;;;;;;;16.19;100.00;98389.97;5040216;28;19944;-42
2022/11/03 10:05:37;;;;;;;;;;;;;;;15.86;100.00;98386.84;5040473;28;20007;-42
2022/11/03 10:08:04;;;;;;;;;;;;;;;16.02;100.00;98378.91;5040473;28;19916;-42
2022/11/03 10:10:29;;;;;;;;;;;;;;;16.09;100.00;98380.16;5038678;28;19921;-42
2022/11/03 10:12:54;;;;;;;;;;;;;;;15.80;100.00;98373.41;5037392;28;19971;-42
2022/11/03 10:15:20;;;;;;;;;;;;;;;16.06;100.00;98376.97;5040680;28;19921;-42
2022/11/03 10:17:46;;;;;;;;;;;;;;;16.03;100.00;98359.81;5040963;28;19965;-42
2022/11/03 10:20:12;;;;;;;;;;;;;;;15.92;100.00;98358.81;5040034;28;19917;-42
2022/11/03 10:22:38;;;;;;;;;;;;;;;16.47;100.00;98348.25;5041361;28;19916;-42
2022/11/03 10:25:21;;;;;;;;;;;;;;;16.01;100.00;98353.03;5038803;28;19921;-42
2022/11/03 10:27:47;;;;;;;;;;;;;;;16.05;100.00;98357.91;5041288;28;19917;-42
2022/11/03 10:30:12;;;;;;;;;;;;;;;16.12;100.00;98336.75;5040660;28;20810;-42
2022/11/03 10:32:37;;;;;;;;;;;;;;;16.48;100.00;98330.88;5038229;28;19925;-42
2022/11/03 10:35:14;;;;;;;;;;;;;;;16.47;100.00;98339.63;5039705;28;19921;-42
2022/11/03 10:37:40;;;;;;;;;;;;;;;16.18;100.00;98321.59;5039254;28;19924;-42
2022/11/03 10:40:09;;;;;;;;;;;;;;;16.50;100.00;98316.84;5040678;28;19917;-42
2022/11/03 10:42:34;;;;;;;;;;;;;;;16.30;100.00;98325.97;5037813;28;19925;-42
2022/11/03 10:45:15;;;;;;;;;;;;;;;16.36;100.00;98332.53;5041285;28;19927;-42
2022/11/03 10:47:40;;;;;;;;;;;;;;;16.68;100.00;98314.78;5038940;28;19943;-42
2022/11/03 10:50:18;;;;;;;;;;;;;;;16.52;100.00;98314.16;5040173;28;19921;-42
2022/11/03 10:52:43;;;;;;;;;;;;;;;16.60;100.00;98311.84;5038597;28;19991;-42
2022/11/03 10:55:09;;;;;;;;;;;;;;;16.71;100.00;98303.34;5039329;28;19928;-42
2022/11/03 10:57:35;;;;;;;;;;;;;;;16.28;100.00;98308.81;5039376;28;19916;-42
2022/11/03 11:00:00;;;;;;;;;;;;;;;17.03;100.00;98288.13;5038892;28;19924;-42
2022/11/03 11:02:26;;;;;;;;;;;;;;;17.04;100.00;98274.22;5040455;28;19917;-42
2022/11/03 11:04:53;;;;;;;;;;;;;;;16.89;100.00;98280.47;5040948;28;19923;-42
2022/11/03 11:07:20;;;;;;;;;;;;;;;16.43;100.00;98257.59;5038945;28;19921;-42
2022/11/03 11:09:45;;;;;;;;;;;;;;;16.45;100.00;98255.72;5040291;28;20063;-42
2022/11/03 11:12:15;;;;;;;;;;;;;;;16.62;100.00;98237.19;5039783;28;20436;-42
2022/11/03 11:14:50;;;;;;;;;;;;;;;16.69;100.00;98227.22;5039225;28;20404;-42
2022/11/03 11:17:38;;;;;;;;;;;;;;;16.54;100.00;98221.31;5035588;28;19925;-42
2022/11/03 11:20:22;;;;;;;;;;;;;;;16.39;100.00;98220.59;5036104;28;20412;-42
2022/11/03 11:22:48;;;;;;;;;;;;;;;16.35;100.00;98213.09;5034695;28;19921;-42
2022/11/03 11:25:13;;;;;;;;;;;;;;;16.45;100.00;98209.78;5039678;28;19917;-42
2022/11/03 11:27:38;;;;;;;;;;;;;;;16.70;100.00;98197.69;5040012;28;19928;-42
2022/11/03 11:30:27;;;;;;;;;;;;;;;16.84;100.00;98189.78;5038705;28;19925;-42
2022/11/03 11:32:57;;;;;;;;;;;;;;;16.80;100.00;98188.31;5026249;28;19932;-42
2022/11/03 11:35:23;;;;;;;;;;;;;;;16.42;100.00;98188.34;5036995;28;19921;-42
2022/11/03 11:37:49;;;;;;;;;;;;;;;16.70;100.00;98182.91;5038933;28;19913;-42
2022/11/03 11:40:23;;;;;;;;;;;;;;;16.37;100.00;98190.44;5037113;28;19913;-42
2022/11/03 11:43:01;;;;;;;;;;;;;;;16.79;100.00;98185.81;5038987;28;20362;-42
2022/11/03 11:45:44;;;;;;;;;;;;;;;16.66;100.00;98181.47;5037498;28;19921;-42
2022/11/03 11:48:16;;;;;;;;;;;;;;;16.57;100.00;98173.47;5036872;28;19982;-42
2022/11/03 11:50:41;;;;;;;;;;;;;;;16.27;100.00;98149.50;5038952;28;20000;-42
2022/11/03 11:53:09;;;;;;;;;;;;;;;16.92;100.00;98145.84;5039866;28;20039;-42
2022/11/03 11:55:41;;;;;;;;;;;;;;;16.61;100.00;98133.34;5039347;28;19924;-42
2022/11/03 11:58:21;;;;;;;;;;;;;;;17.10;100.00;98128.06;5043056;28;20010;-42
2022/11/03 12:01:09;;;;;;;;;;;;;;;17.03;100.00;98129.47;5039362;28;19921;-42
2022/11/03 12:03:36;;;;;;;;;;;;;;;17.35;100.00;98126.28;5040237;28;19947;-42
2022/11/03 12:06:01;;;;;;;;;;;;;;;16.96;100.00;98130.84;5041895;28;19956;-42
2022/11/03 12:08:28;;;;;;;;;;;;;;;17.29;100.00;98124.16;5040660;28;20007;-42
2022/11/03 12:10:55;;;;;;;;;;;;;;;16.98;100.00;98110.75;5042187;28;19925;-42
2022/11/03 12:13:33;;;;;;;;;;;;;;;17.00;100.00;98111.47;5043472;28;19916;-42
2022/11/03 12:15:58;;;;;;;;;;;;;;;16.65;100.00;98101.81;5042086;28;20019;-42
2022/11/03 12:18:36;;;;;;;;;;;;;;;17.14;100.00;98106.09;5040824;28;19920;-42
2022/11/03 12:21:27;;;;;;;;;;;;;;;16.94;100.00;98091.09;5043184;28;19923;-43
2022/11/03 12:23:53;;;;;;;;;;;;;;;16.90;100.00;98081.88;5035162;28;20260;-43
2022/11/03 12:26:18;;;;;;;;;;;;;;;16.76;100.00;98062.03;5042936;28;19921;-42
2022/11/03 12:28:43;;;;;;;;;;;;;;;17.82;100.00;98063.81;5042186;28;19921;-42
2022/11/03 12:31:08;;;;;;;;;;;;;;;17.52;100.00;98049.56;5042081;28;20344;-42
2022/11/03 12:33:34;;;;;;;;;;;;;;;17.86;100.00;98042.63;5043067;28;19944;-42
2022/11/03 12:35:59;;;;;;;;;;;;;;;17.95;100.00;98047.13;5042985;28;19953;-42
2022/11/03 12:38:24;;;;;;;;;;;;;;;17.98;100.00;98046.06;5042555;28;19920;-42
2022/11/03 12:40:50;;;;;;;;;;;;;;;18.57;100.00;98037.06;5041985;28;19968;-42
2022/11/03 12:43:15;;;;;;;;;;;;;;;18.81;100.00;98019.44;5042156;28;19966;-42
2022/11/03 12:45:40;;;;;;;;;;;;;;;19.08;100.00;98020.75;5042074;28;19917;-42
2022/11/03 12:48:06;;;;;;;;;;;;;;;18.88;100.00;98035.44;5043131;28;19924;-42
2022/11/03 12:50:31;;;;;;;;;;;;;;;19.21;100.00;98029.22;5041844;28;19921;-42
2022/11/03 12:52:56;;;;;;;;;;;;;;;18.21;100.00;98031.22;5043178;28;19917;-42
2022/11/03 12:55:22;;;;;;;;;;;;;;;18.65;100.00;98013.78;5042930;28;20007;-42
2022/11/03 12:57:47;;;;;;;;;;;;;;;19.36;100.00;97997.56;5043489;28;19999;-42
2022/11/03 13:00:13;;;;;;;;;;;;;;;18.59;100.00;97998.66;5040284;28;20027;-42